Time;durP1;ratioP1;P1;durP2;ratioP2;P2;SDS_P1;SDS_P2;PMS_P1;PMS_P2;Temp;Humidity;BMP_temperature;BMP_pressure;BME280_temperature;BME280_humidity;BME280_pressure;Samples;Min_cycle;Max_cycle;Signal;HPM_P1;HPM_P2
2023/08/26 09:08:48;;;;;;;2.25;1.13;;;18.00;99.90;;;;;;5132163;27;20328;-81
2023/08/26 09:11:14;;;;;;;1.52;0.90;;;17.90;99.90;;;;;;5130401;28;20183;-80
2023/08/26 09:13:40;;;;;;;0.60;0.60;;;18.00;99.90;;;;;;5131746;28;20047;-80
2023/08/26 09:16:06;;;;;;;0.57;0.57;;;18.00;99.90;;;;;;5131483;27;20034;-76
2023/08/26 09:18:41;;;;;;;0.60;0.60;;;17.90;99.90;;;;;;5131573;28;20042;-76
2023/08/26 09:21:08;;;;;;;0.95;0.77;;;18.00;99.90;;;;;;5131792;27;20069;-82
2023/08/26 09:23:44;;;;;;;0.55;0.55;;;18.10;99.90;;;;;;5131300;27;20498;-81
2023/08/26 09:26:10;;;;;;;0.90;0.82;;;18.10;99.90;;;;;;5130335;28;20044;-81
2023/08/26 09:28:37;;;;;;;0.57;0.57;;;18.10;99.90;;;;;;5131848;27;20080;-83
2023/08/26 09:31:07;;;;;;;0.90;0.82;;;18.20;99.90;;;;;;5132501;27;20269;-78
2023/08/26 09:33:33;;;;;;;0.40;0.40;;;18.00;99.90;;;;;;5131499;27;20084;-79
2023/08/26 09:35:59;;;;;;;0.55;0.55;;;18.10;99.90;;;;;;5130884;27;20043;-78
2023/08/26 09:38:25;;;;;;;0.57;0.50;;;18.30;99.90;;;;;;5131163;27;20615;-78
2023/08/26 09:40:58;;;;;;;3.30;0.52;;;18.30;99.90;;;;;;5131426;27;20362;-78
2023/08/26 09:43:24;;;;;;;0.50;0.47;;;18.30;99.90;;;;;;5131734;27;20477;-78
2023/08/26 09:45:54;;;;;;;0.45;0.45;;;18.50;99.90;;;;;;5130744;27;20521;-78
2023/08/26 09:48:21;;;;;;;2.85;0.88;;;18.60;99.90;;;;;;5130639;27;20040;-79
2023/08/26 09:50:46;;;;;;;0.52;0.50;;;18.80;99.90;;;;;;5131018;27;20036;-79
2023/08/26 09:53:12;;;;;;;0.53;0.53;;;19.00;99.90;;;;;;5131260;28;20039;-81
2023/08/26 09:55:39;;;;;;;1.90;0.97;;;19.20;99.90;;;;;;5130672;28;20043;-79
2023/08/26 09:58:04;;;;;;;1.02;0.80;;;19.50;99.90;;;;;;5131411;27;20043;-79
2023/08/26 10:00:31;;;;;;;0.73;0.60;;;19.60;99.90;;;;;;5133075;27;20042;-84
2023/08/26 10:03:03;;;;;;;0.45;0.45;;;19.70;99.90;;;;;;5130567;28;20043;-84
2023/08/26 10:05:33;;;;;;;0.50;0.50;;;19.90;99.90;;;;;;5131694;28;20405;-77
2023/08/26 10:08:04;;;;;;;0.52;0.40;;;20.00;99.90;;;;;;5129968;27;20055;-73
2023/08/26 10:10:39;;;;;;;0.30;0.30;;;20.10;99.90;;;;;;5129723;28;20043;-73
2023/08/26 10:13:06;;;;;;;0.63;0.63;;;20.20;99.90;;;;;;5130455;28;20052;-74
2023/08/26 10:15:33;;;;;;;0.40;0.40;;;20.30;99.90;;;;;;5130857;27;20043;-73
2023/08/26 10:18:15;;;;;;;0.43;0.43;;;20.40;99.90;;;;;;5129955;27;20062;-76
2023/08/26 10:20:44;;;;;;;0.20;0.20;;;20.50;99.90;;;;;;5116620;28;20035;-76
2023/08/26 10:23:10;;;;;;;1.27;0.88;;;20.60;99.90;;;;;;5116714;28;20071;-74
2023/08/26 10:25:36;;;;;;;0.93;0.55;;;20.60;99.90;;;;;;5116988;28;20123;-75
2023/08/26 10:28:03;;;;;;;0.28;0.28;;;20.60;99.90;;;;;;5116753;28;20032;-74
2023/08/26 10:30:29;;;;;;;;;;;20.70;99.90;;;;;;5117187;28;20039;-73
2023/08/26 10:33:02;;;;;;;0.65;0.30;;;20.60;99.90;;;;;;5116798;28;20355;-74
2023/08/26 10:35:28;;;;;;;0.30;0.30;;;20.30;99.90;;;;;;5116595;28;20032;-74
2023/08/26 10:38:14;;;;;;;0.38;0.30;;;20.20;99.90;;;;;;5116963;28;20486;-72
2023/08/26 10:40:39;;;;;;;0.65;0.40;;;20.10;99.90;;;;;;5117874;28;20042;-71
2023/08/26 10:43:08;;;;;;;0.20;0.20;;;20.10;99.90;;;;;;5116222;28;20118;-73
2023/08/26 10:45:43;;;;;;;1.27;0.43;;;20.10;99.90;;;;;;5115511;28;20043;-74
2023/08/26 10:48:10;;;;;;;0.30;0.30;;;20.10;99.90;;;;;;5116333;28;20040;-73
2023/08/26 10:50:35;;;;;;;0.20;0.20;;;20.00;99.90;;;;;;5115973;28;20081;-71
2023/08/26 10:53:22;;;;;;;0.30;0.30;;;20.10;99.90;;;;;;5116728;28;20417;-83
2023/08/26 10:55:53;;;;;;;2.63;0.73;;;20.40;99.90;;;;;;5116701;28;20048;-78
2023/08/26 10:58:21;;;;;;;0.35;0.35;;;20.60;99.90;;;;;;5116546;28;20035;-79
2023/08/26 11:00:49;;;;;;;0.40;0.40;;;20.60;99.90;;;;;;5116119;27;20463;-78
2023/08/26 11:03:17;;;;;;;0.22;0.22;;;20.70;99.90;;;;;;5116167;28;20043;-81
2023/08/26 11:05:45;;;;;;;0.43;0.43;;;20.90;99.90;;;;;;5116161;28;20044;-82
2023/08/26 11:08:11;;;;;;;0.30;0.30;;;21.00;99.90;;;;;;5115724;28;20381;-81
2023/08/26 11:10:41;;;;;;;0.30;0.30;;;21.10;99.90;;;;;;5116114;28;20035;-81
2023/08/26 11:13:09;;;;;;;0.20;0.20;;;21.20;99.90;;;;;;5116166;28;20055;-78
2023/08/26 11:15:45;;;;;;;0.28;0.28;;;21.30;99.90;;;;;;5114958;28;20039;-83
2023/08/26 11:18:11;;;;;;;0.20;0.20;;;21.20;99.90;;;;;;5115839;28;20515;-82
2023/08/26 11:20:37;;;;;;;0.47;0.47;;;21.20;99.90;;;;;;5115835;28;20491;-85
2023/08/26 11:23:05;;;;;;;0.30;0.30;;;21.20;99.90;;;;;;5119966;27;20420;-80
2023/08/26 11:25:32;;;;;;;0.50;0.50;;;21.40;99.90;;;;;;5136603;27;20470;-80
2023/08/26 11:28:05;;;;;;;0.30;0.30;;;21.50;99.90;;;;;;5115416;27;20039;-75
2023/08/26 11:30:42;;;;;;;0.30;0.30;;;21.70;99.90;;;;;;5114442;27;20130;-77
2023/08/26 11:33:17;;;;;;;0.47;0.47;;;21.80;99.90;;;;;;5115299;28;20108;-79
2023/08/26 11:35:49;;;;;;;0.30;0.30;;;21.80;99.90;;;;;;5114880;28;20043;-77
2023/08/26 11:38:16;;;;;;;0.40;0.40;;;21.80;99.90;;;;;;5114007;28;20039;-78
2023/08/26 11:40:42;;;;;;;0.20;0.20;;;21.80;99.90;;;;;;5115462;28;20035;-74
2023/08/26 11:43:12;;;;;;;0.63;0.32;;;21.90;99.90;;;;;;5114589;28;20058;-78
2023/08/26 11:45:42;;;;;;;0.30;0.30;;;22.10;99.90;;;;;;5115206;28;20071;-76
2023/08/26 11:48:12;;;;;;;0.22;0.22;;;22.10;99.90;;;;;;5114642;28;20035;-77
2023/08/26 11:50:39;;;;;;;0.30;0.30;;;22.20;99.90;;;;;;5115370;28;20031;-77
2023/08/26 11:53:05;;;;;;;0.20;0.20;;;22.20;99.90;;;;;;5115049;28;20064;-77
2023/08/26 11:55:33;;;;;;;0.20;0.20;;;22.20;99.90;;;;;;5114795;28;20055;-75
2023/08/26 11:58:00;;;;;;;0.20;0.20;;;22.20;99.90;;;;;;5113849;28;20086;-75
2023/08/26 12:00:27;;;;;;;0.20;0.20;;;22.10;99.90;;;;;;5114862;28;20050;-78
2023/08/26 12:02:53;;;;;;;;;;;22.20;99.90;;;;;;5114131;28;20123;-77
2023/08/26 12:05:19;;;;;;;0.20;0.20;;;22.30;99.90;;;;;;5113123;28;20355;-77
2023/08/26 12:07:50;;;;;;;0.20;0.20;;;22.50;99.90;;;;;;5114545;28;20544;-77
2023/08/26 12:10:17;;;;;;;0.20;0.20;;;22.70;99.90;;;;;;5114526;28;20143;-75
2023/08/26 12:12:45;;;;;;;0.32;0.32;;;22.80;99.90;;;;;;5114774;28;20051;-74
2023/08/26 12:15:13;;;;;;;0.20;0.20;;;22.90;99.90;;;;;;5114721;28;20044;-75
2023/08/26 12:17:46;;;;;;;0.20;0.20;;;23.00;99.90;;;;;;5114701;28;20122;-76
2023/08/26 12:20:29;;;;;;;0.28;0.28;;;23.10;99.90;;;;;;5114812;28;20040;-75
2023/08/26 12:22:57;;;;;;;0.20;0.20;;;23.00;99.90;;;;;;5114426;28;20075;-77
2023/08/26 12:25:25;;;;;;;0.20;0.20;;;22.90;99.90;;;;;;5114825;27;20035;-78
2023/08/26 12:27:52;;;;;;;0.30;0.30;;;22.90;99.90;;;;;;5114709;28;20039;-81
2023/08/26 12:30:19;;;;;;;0.47;0.47;;;22.80;99.90;;;;;;5114511;28;20035;-76
2023/08/26 12:32:46;;;;;;;0.20;0.20;;;22.90;99.90;;;;;;5113499;28;20035;-78
2023/08/26 12:35:12;;;;;;;0.20;0.20;;;22.80;99.90;;;;;;5114137;28;20039;-79
2023/08/26 12:37:37;;;;;;;0.30;0.30;;;22.60;99.90;;;;;;5113673;28;20048;-77
2023/08/26 12:40:04;;;;;;;0.20;0.20;;;22.40;99.90;;;;;;5114065;28;20039;-78
2023/08/26 12:42:33;;;;;;;3.30;0.90;;;22.40;99.90;;;;;;5113955;28;20044;-78
2023/08/26 12:44:59;;;;;;;0.43;0.30;;;22.50;99.90;;;;;;5113051;28;20048;-79
2023/08/26 12:47:26;;;;;;;0.20;0.20;;;22.50;99.90;;;;;;5114177;28;20031;-76
2023/08/26 12:49:51;;;;;;;0.65;0.28;;;22.50;99.90;;;;;;5113933;28;20028;-82
2023/08/26 12:52:17;;;;;;;0.23;0.23;;;22.60;99.90;;;;;;5114062;28;20043;-77
2023/08/26 12:54:43;;;;;;;0.20;0.20;;;22.80;99.90;;;;;;5114279;28;20130;-78
2023/08/26 12:57:08;;;;;;;0.30;0.30;;;23.00;99.90;;;;;;5114660;28;20032;-80
2023/08/26 12:59:34;;;;;;;0.20;0.20;;;23.00;99.90;;;;;;5113057;28;20050;-82
2023/08/26 13:02:00;;;;;;;0.20;0.20;;;23.10;99.90;;;;;;5113892;28;20092;-76
2023/08/26 13:04:25;;;;;;;0.53;0.53;;;23.10;99.90;;;;;;5112982;28;20414;-80
2023/08/26 13:06:51;;;;;;;0.30;0.30;;;23.00;99.90;;;;;;5110086;28;20044;-74
2023/08/26 13:09:16;;;;;;;0.20;0.20;;;23.00;99.90;;;;;;5115066;28;20479;-74
2023/08/26 13:11:42;;;;;;;1.20;0.57;;;22.90;99.90;;;;;;5113594;28;20056;-83
2023/08/26 13:14:09;;;;;;;1.90;0.40;;;23.00;99.90;;;;;;5113964;28;20043;-76
2023/08/26 13:16:34;;;;;;;0.20;0.20;;;23.00;99.90;;;;;;5111520;28;20054;-75
2023/08/26 13:19:00;;;;;;;0.20;0.20;;;22.80;99.90;;;;;;5090786;28;20032;-75
2023/08/26 13:21:26;;;;;;;0.20;0.20;;;22.60;99.90;;;;;;5092633;28;20061;-76
2023/08/26 13:23:51;;;;;;;0.30;0.30;;;22.60;99.90;;;;;;5093057;28;20115;-77
2023/08/26 13:26:17;;;;;;;1.40;0.60;;;22.70;99.90;;;;;;5092673;28;20123;-76
2023/08/26 13:28:43;;;;;;;0.20;0.20;;;22.60;99.90;;;;;;5098484;28;20127;-78
2023/08/26 13:31:09;;;;;;;0.22;0.22;;;22.40;99.90;;;;;;5113603;28;20085;-73
2023/08/26 13:33:35;;;;;;;0.68;0.68;;;22.30;99.90;;;;;;5113467;28;20043;-74
2023/08/26 13:36:01;;;;;;;0.20;0.20;;;22.30;99.90;;;;;;5113418;28;20486;-73
2023/08/26 13:38:27;;;;;;;0.30;0.30;;;22.20;99.90;;;;;;5113695;28;20472;-73
2023/08/26 13:40:52;;;;;;;0.20;0.20;;;22.10;99.90;;;;;;5113428;28;20096;-73
2023/08/26 13:43:18;;;;;;;0.20;0.20;;;22.10;99.90;;;;;;5113475;28;20073;-76
2023/08/26 13:45:44;;;;;;;0.70;0.70;;;22.10;99.90;;;;;;5113461;28;20482;-81
2023/08/26 13:48:09;;;;;;;0.20;0.20;;;22.20;99.90;;;;;;5113538;28;20359;-74
2023/08/26 13:50:35;;;;;;;0.20;0.20;;;22.20;99.90;;;;;;5112576;28;20075;-72
2023/08/26 13:53:01;;;;;;;0.30;0.30;;;22.10;99.90;;;;;;5111118;28;20042;-74
2023/08/26 13:55:26;;;;;;;0.43;0.43;;;22.10;99.90;;;;;;5116285;28;20046;-73
2023/08/26 13:57:52;;;;;;;0.20;0.20;;;21.90;99.90;;;;;;5115430;28;20100;-73
2023/08/26 14:00:18;;;;;;;0.20;0.20;;;21.70;99.90;;;;;;5117018;28;20097;-73
2023/08/26 14:02:43;;;;;;;0.30;0.30;;;21.60;99.90;;;;;;5117395;28;20032;-73
2023/08/26 14:05:11;;;;;;;0.93;0.40;;;21.60;99.90;;;;;;5117073;28;20042;-72
2023/08/26 14:07:38;;;;;;;0.30;0.30;;;21.50;99.90;;;;;;5112988;27;20052;-72
2023/08/26 14:10:04;;;;;;;0.20;0.20;;;21.50;99.90;;;;;;5111279;28;20479;-75
2023/08/26 14:12:30;;;;;;;0.40;0.40;;;21.60;99.90;;;;;;5116821;28;20031;-75
2023/08/26 14:14:55;;;;;;;0.40;0.40;;;21.70;99.90;;;;;;5117108;28;20065;-73
2023/08/26 14:17:21;;;;;;;0.30;0.30;;;21.90;99.90;;;;;;5116635;28;20118;-77
2023/08/26 14:19:47;;;;;;;0.20;0.20;;;22.00;99.90;;;;;;5116357;28;20035;-73
2023/08/26 14:22:12;;;;;;;0.30;0.30;;;22.20;99.90;;;;;;5116744;28;20063;-73
2023/08/26 14:24:38;;;;;;;0.20;0.20;;;22.40;99.90;;;;;;5116720;28;20138;-73
2023/08/26 14:27:04;;;;;;;0.20;0.20;;;22.40;99.90;;;;;;5116893;28;20059;-73
2023/08/26 14:29:29;;;;;;;0.20;0.20;;;22.50;99.90;;;;;;5116595;28;20119;-74
2023/08/26 14:31:55;;;;;;;0.30;0.30;;;22.50;99.90;;;;;;5116994;28;20043;-74
2023/08/26 14:34:20;;;;;;;0.30;0.30;;;22.50;99.90;;;;;;5116969;28;20040;-73
2023/08/26 14:36:46;;;;;;;0.30;0.30;;;22.40;99.90;;;;;;5116717;28;20040;-74
2023/08/26 14:39:12;;;;;;;0.20;0.20;;;22.30;99.90;;;;;;5116643;27;20040;-76
2023/08/26 14:41:37;;;;;;;0.20;0.20;;;22.20;99.90;;;;;;5116358;28;20479;-78
2023/08/26 14:44:05;;;;;;;0.30;0.30;;;22.10;99.90;;;;;;5116672;28;20122;-75
2023/08/26 14:46:33;;;;;;;0.30;0.30;;;22.00;99.90;;;;;;5116155;28;20040;-82
2023/08/26 14:48:59;;;;;;;0.20;0.20;;;21.90;99.90;;;;;;5108734;28;20071;-83
2023/08/26 14:51:25;;;;;;;0.30;0.30;;;21.70;99.90;;;;;;5116083;28;20100;-83
2023/08/26 14:53:51;;;;;;;0.30;0.30;;;21.50;99.90;;;;;;5137296;27;20058;-83
2023/08/26 14:56:16;;;;;;;0.30;0.30;;;21.50;99.90;;;;;;5114766;28;20035;-83
2023/08/26 14:58:42;;;;;;;0.20;0.20;;;21.30;99.90;;;;;;5116043;28;20040;-83
2023/08/26 15:01:08;;;;;;;0.50;0.50;;;21.20;99.90;;;;;;5114848;28;20035;-86
2023/08/26 15:03:33;;;;;;;0.63;0.63;;;21.00;99.90;;;;;;5140657;27;20114;-83
2023/08/26 15:06:06;;;;;;;0.30;0.30;;;20.80;99.90;;;;;;5115335;28;20047;-84
2023/08/26 15:08:31;;;;;;;0.30;0.30;;;20.40;99.90;;;;;;5114951;28;20054;-86
2023/08/26 15:10:57;;;;;;;0.20;0.20;;;20.10;99.90;;;;;;5098167;28;20039;-87
2023/08/26 15:13:23;;;;;;;0.30;0.30;;;19.60;99.90;;;;;;5140952;27;20494;-86
2023/08/26 15:15:49;;;;;;;0.30;0.30;;;19.40;99.90;;;;;;5116087;28;20039;-87
2023/08/26 15:18:18;;;;;;;0.38;0.38;;;19.20;99.90;;;;;;5114973;28;20035;-84
2023/08/26 15:20:44;;;;;;;0.22;0.22;;;19.00;99.90;;;;;;5113795;28;20074;-78
2023/08/26 15:23:24;;;;;;;0.30;0.30;;;19.00;99.90;;;;;;5114031;28;20062;-80
2023/08/26 15:25:52;;;;;;;0.20;0.20;;;19.00;99.90;;;;;;5113908;28;20176;-74
2023/08/26 15:28:22;;;;;;;;;;;19.10;99.90;;;;;;5114300;28;20036;-83
2023/08/26 15:30:51;;;;;;;0.30;0.30;;;19.20;99.90;;;;;;5111156;28;19920;-75
2023/08/26 15:33:18;;;;;;;0.25;0.25;;;19.20;99.90;;;;;;5114076;28;20046;-78
2023/08/26 15:35:52;;;;;;;0.52;0.43;;;19.20;99.90;;;;;;5113430;28;20035;-74
2023/08/26 15:38:18;;;;;;;0.20;0.20;;;19.30;99.90;;;;;;5114638;27;20633;-76
2023/08/26 15:40:57;;;;;;;0.20;0.20;;;19.40;99.90;;;;;;5113948;28;20122;-74
2023/08/26 15:43:23;;;;;;;0.20;0.20;;;19.30;99.90;;;;;;5113065;28;20027;-73
2023/08/26 15:45:50;;;;;;;0.40;0.40;;;19.30;99.90;;;;;;5112247;27;20043;-76
2023/08/26 15:48:16;;;;;;;0.22;0.22;;;19.20;99.90;;;;;;5111969;27;20031;-74
2023/08/26 15:50:42;;;;;;;0.60;0.60;;;19.20;99.90;;;;;;5112480;28;20164;-73
2023/08/26 15:53:13;;;;;;;0.30;0.30;;;19.20;99.90;;;;;;5112554;27;20128;-71
2023/08/26 15:55:40;;;;;;;0.20;0.20;;;19.20;99.90;;;;;;5110900;27;20507;-75
2023/08/26 15:58:06;;;;;;;0.30;0.30;;;19.20;99.90;;;;;;5115839;27;20027;-73
2023/08/26 16:00:33;;;;;;;0.22;0.22;;;19.30;99.90;;;;;;5113754;28;20102;-73
2023/08/26 16:03:00;;;;;;;0.20;0.20;;;19.20;99.90;;;;;;5113347;28;20488;-74
2023/08/26 16:05:26;;;;;;;0.20;0.20;;;19.20;99.90;;;;;;5129825;27;20039;-71
2023/08/26 16:07:52;;;;;;;0.20;0.20;;;19.20;99.90;;;;;;5135168;27;20122;-72
2023/08/26 16:10:18;;;;;;;0.30;0.30;;;19.30;99.90;;;;;;5135347;27;20126;-72
2023/08/26 16:12:44;;;;;;;0.20;0.20;;;19.30;99.90;;;;;;5135550;27;20121;-77
2023/08/26 16:15:09;;;;;;;0.20;0.20;;;19.30;99.90;;;;;;5116168;27;20126;-71
2023/08/26 16:17:35;;;;;;;0.50;0.50;;;19.30;99.90;;;;;;5113918;28;20410;-74
2023/08/26 16:20:01;;;;;;;0.27;0.27;;;19.30;99.90;;;;;;5114335;28;20489;-72
2023/08/26 16:22:27;;;;;;;0.23;0.23;;;19.30;99.90;;;;;;5114032;28;20031;-74
2023/08/26 16:24:53;;;;;;;0.32;0.32;;;19.50;99.90;;;;;;5123412;27;20045;-74
2023/08/26 16:27:19;;;;;;;0.20;0.20;;;19.50;99.90;;;;;;5113477;28;20040;-72
2023/08/26 16:29:44;;;;;;;0.20;0.20;;;19.50;99.90;;;;;;5114669;28;20371;-71
2023/08/26 16:32:10;;;;;;;0.20;0.20;;;19.50;99.90;;;;;;5119895;27;20348;-75
2023/08/26 16:34:37;;;;;;;0.30;0.30;;;19.40;99.90;;;;;;5118340;27;20536;-73
2023/08/26 16:37:04;;;;;;;0.20;0.20;;;19.40;99.90;;;;;;5112988;28;20048;-75
2023/08/26 16:39:29;;;;;;;;;;;19.40;99.90;;;;;;5121598;27;20480;-73
2023/08/26 16:41:55;;;;;;;0.30;0.30;;;19.40;99.90;;;;;;5114816;27;20006;-74
2023/08/26 16:44:20;;;;;;;0.30;0.30;;;19.20;99.90;;;;;;5114398;28;20091;-74
2023/08/26 16:46:46;;;;;;;0.30;0.30;;;19.20;99.90;;;;;;5113108;28;20039;-74
2023/08/26 16:49:12;;;;;;;0.20;0.20;;;19.20;99.90;;;;;;5114010;28;20463;-72
2023/08/26 16:51:37;;;;;;;0.20;0.20;;;19.20;99.90;;;;;;5114228;28;20376;-73
2023/08/26 16:54:04;;;;;;;0.33;0.30;;;19.20;99.90;;;;;;5113940;28;20118;-75
2023/08/26 16:56:29;;;;;;;0.20;0.20;;;19.10;99.90;;;;;;5114411;28;20051;-75
2023/08/26 16:58:55;;;;;;;0.20;0.20;;;19.10;99.90;;;;;;5113892;28;20043;-75
2023/08/26 17:01:21;;;;;;;0.40;0.40;;;19.10;99.90;;;;;;5112350;28;20035;-78
2023/08/26 17:03:47;;;;;;;;;;;19.10;99.90;;;;;;5114477;28;20046;-76
2023/08/26 17:06:16;;;;;;;0.30;0.30;;;19.10;99.90;;;;;;5113321;28;20006;-82
2023/08/26 17:08:41;;;;;;;0.30;0.30;;;19.10;99.90;;;;;;5113813;28;20044;-82
2023/08/26 17:11:08;;;;;;;0.20;0.20;;;19.20;99.90;;;;;;5112563;28;20048;-79
2023/08/26 17:13:34;;;;;;;0.30;0.30;;;19.20;99.90;;;;;;5116640;28;20055;-80
2023/08/26 17:16:02;;;;;;;0.20;0.20;;;19.20;99.90;;;;;;5112594;28;20467;-82
2023/08/26 17:18:28;;;;;;;0.30;0.30;;;19.20;99.90;;;;;;5113395;28;20533;-81
2023/08/26 17:20:54;;;;;;;0.20;0.20;;;19.10;99.90;;;;;;5114832;28;20498;-85
2023/08/26 17:23:20;;;;;;;0.20;0.20;;;19.10;99.90;;;;;;5113880;28;20043;-84
2023/08/26 17:25:46;;;;;;;0.20;0.20;;;19.10;99.90;;;;;;5113502;28;20112;-77
2023/08/26 17:28:12;;;;;;;0.40;0.40;;;19.10;99.90;;;;;;5111743;28;20459;-80
2023/08/26 17:30:38;;;;;;;0.20;0.20;;;19.10;99.90;;;;;;5117262;27;20031;-80
2023/08/26 17:33:04;;;;;;;0.30;0.30;;;19.10;99.90;;;;;;5117888;28;20273;-83
2023/08/26 17:35:38;;;;;;;0.30;0.30;;;19.00;99.90;;;;;;5116189;28;20044;-81
2023/08/26 17:38:06;;;;;;;0.20;0.20;;;19.00;99.90;;;;;;5117124;28;20075;-84
2023/08/26 17:40:33;;;;;;;0.20;0.20;;;18.90;99.90;;;;;;5117311;28;20044;-83
2023/08/26 17:42:59;;;;;;;0.20;0.20;;;18.90;99.90;;;;;;5117333;28;20047;-82
2023/08/26 17:45:26;;;;;;;0.20;0.20;;;18.90;99.90;;;;;;5098339;28;20043;-80
2023/08/26 17:47:53;;;;;;;0.30;0.30;;;18.80;99.90;;;;;;5127940;27;20400;-79
2023/08/26 17:50:21;;;;;;;0.20;0.20;;;18.80;99.90;;;;;;5131634;27;20731;-89
2023/08/26 17:52:46;;;;;;;0.87;0.30;;;18.80;99.90;;;;;;5117463;28;20043;-88
2023/08/26 17:55:12;;;;;;;0.27;0.27;;;18.80;99.90;;;;;;5117146;28;20032;-85
2023/08/26 17:57:38;;;;;;;0.30;0.30;;;18.70;99.90;;;;;;5114391;28;20052;-87
2023/08/26 18:00:04;;;;;;;0.40;0.30;;;18.70;99.90;;;;;;5116424;28;20122;-74
2023/08/26 18:02:30;;;;;;;0.63;0.55;;;18.60;99.90;;;;;;5117892;28;20444;-76
2023/08/26 18:04:56;;;;;;;0.25;0.25;;;18.50;99.90;;;;;;5116776;28;20039;-75
2023/08/26 18:07:22;;;;;;;0.27;0.27;;;18.40;99.90;;;;;;5114309;28;20506;-75
2023/08/26 18:09:48;;;;;;;0.20;0.20;;;18.40;99.90;;;;;;5114799;28;20039;-74
2023/08/26 18:12:14;;;;;;;0.30;0.30;;;18.30;99.90;;;;;;5115324;28;20043;-74
2023/08/26 18:14:39;;;;;;;0.20;0.20;;;18.30;99.90;;;;;;5115532;28;20122;-76
2023/08/26 18:17:05;;;;;;;0.30;0.30;;;18.20;99.90;;;;;;5115482;28;20475;-75
2023/08/26 18:19:33;;;;;;;0.30;0.30;;;18.10;99.90;;;;;;5115235;28;20043;-77
2023/08/26 18:21:58;;;;;;;0.40;0.40;;;18.10;99.90;;;;;;5114820;28;20079;-74
2023/08/26 18:24:24;;;;;;;0.20;0.20;;;18.00;99.90;;;;;;5114986;28;20082;-75
2023/08/26 18:26:50;;;;;;;0.20;0.20;;;18.00;99.90;;;;;;5114904;28;20464;-74
2023/08/26 18:29:15;;;;;;;0.23;0.23;;;17.90;99.90;;;;;;5114887;28;20043;-85
2023/08/26 18:31:41;;;;;;;0.20;0.20;;;17.80;99.90;;;;;;5115067;28;20480;-82
2023/08/26 18:34:09;;;;;;;0.43;0.40;;;17.80;99.90;;;;;;5115103;28;20047;-79
2023/08/26 18:36:35;;;;;;;0.30;0.30;;;17.80;99.90;;;;;;5116201;28;20043;-78
2023/08/26 18:39:00;;;;;;;0.50;0.50;;;17.70;99.90;;;;;;5116227;28;20051;-79
2023/08/26 18:41:26;;;;;;;0.30;0.30;;;17.60;99.90;;;;;;5116192;28;20027;-79
2023/08/26 18:43:52;;;;;;;0.30;0.30;;;17.70;99.90;;;;;;5116727;28;20040;-78
2023/08/26 18:46:17;;;;;;;0.30;0.30;;;17.70;99.90;;;;;;5116854;28;20118;-79
2023/08/26 18:48:43;;;;;;;0.30;0.30;;;17.60;99.90;;;;;;5116763;28;20468;-84
2023/08/26 18:51:08;;;;;;;0.30;0.30;;;17.60;99.90;;;;;;5116068;28;20040;-78
2023/08/26 18:53:36;;;;;;;0.20;0.20;;;17.50;99.90;;;;;;5116347;28;20040;-75
2023/08/26 18:56:02;;;;;;;0.20;0.20;;;17.50;99.90;;;;;;5116302;28;20104;-80
2023/08/26 18:58:27;;;;;;;0.30;0.30;;;17.50;99.90;;;;;;5116093;28;20032;-76
2023/08/26 19:00:55;;;;;;;0.30;0.30;;;17.40;99.90;;;;;;5116390;28;20482;-80
2023/08/26 19:03:20;;;;;;;0.30;0.30;;;17.40;99.90;;;;;;5115307;28;20046;-75
2023/08/26 19:05:48;;;;;;;0.30;0.30;;;17.20;99.90;;;;;;5116653;27;20036;-77
2023/08/26 19:08:14;;;;;;;0.30;0.30;;;17.20;99.90;;;;;;5105583;27;20076;-77
2023/08/26 19:10:41;;;;;;;0.57;0.50;;;17.10;99.90;;;;;;5111272;28;20081;-86
2023/08/26 19:13:09;;;;;;;0.30;0.30;;;17.10;99.90;;;;;;5113909;28;20043;-78
2023/08/26 19:15:35;;;;;;;0.30;0.30;;;17.00;99.90;;;;;;5113958;28;20100;-81
2023/08/26 19:18:01;;;;;;;0.55;0.32;;;17.00;99.90;;;;;;5114231;28;20040;-79
2023/08/26 19:20:26;;;;;;;0.30;0.30;;;16.90;99.90;;;;;;5113808;28;20050;-81
2023/08/26 19:22:52;;;;;;;0.40;0.40;;;16.90;99.90;;;;;;5114540;28;20061;-80
2023/08/26 19:25:18;;;;;;;0.30;0.30;;;16.80;99.90;;;;;;5116287;28;20036;-84
2023/08/26 19:27:48;;;;;;;0.30;0.30;;;16.80;99.90;;;;;;5117225;28;20047;-83
2023/08/26 19:30:14;;;;;;;0.30;0.30;;;16.80;99.90;;;;;;5115723;28;20040;-83
2023/08/26 19:32:40;;;;;;;1.40;0.47;;;16.70;99.90;;;;;;5115568;28;20039;-83
2023/08/26 19:35:05;;;;;;;0.40;0.40;;;16.70;99.90;;;;;;5116025;28;20519;-82
2023/08/26 19:37:31;;;;;;;0.30;0.30;;;16.70;99.90;;;;;;5115845;28;20031;-81
2023/08/26 19:39:57;;;;;;;0.30;0.30;;;16.70;99.90;;;;;;5115471;27;20039;-80
2023/08/26 19:42:23;;;;;;;0.30;0.30;;;16.70;99.90;;;;;;5115546;28;20074;-80
2023/08/26 19:44:49;;;;;;;0.30;0.30;;;16.60;99.90;;;;;;5115397;28;20604;-78
2023/08/26 19:47:14;;;;;;;0.40;0.40;;;16.60;99.90;;;;;;5115305;28;20036;-79
2023/08/26 19:49:40;;;;;;;0.30;0.30;;;16.60;99.90;;;;;;5115382;27;20039;-83
2023/08/26 19:52:11;;;;;;;0.30;0.30;;;16.60;99.90;;;;;;5113461;28;20096;-74
2023/08/26 19:54:37;;;;;;;0.30;0.30;;;16.50;99.90;;;;;;5115644;28;20124;-75
2023/08/26 19:57:07;;;;;;;0.67;0.67;;;16.50;99.90;;;;;;5115476;28;20079;-74
2023/08/26 19:59:34;;;;;;;0.40;0.40;;;16.50;99.90;;;;;;5116087;28;20039;-81
2023/08/26 20:02:04;;;;;;;0.20;0.20;;;16.40;99.90;;;;;;5113793;28;20388;-80
2023/08/26 20:04:30;;;;;;;0.30;0.30;;;16.40;99.90;;;;;;5114735;27;20039;-79
2023/08/26 20:06:55;;;;;;;0.30;0.30;;;16.40;99.90;;;;;;5114977;28;20096;-77
2023/08/26 20:09:26;;;;;;;0.37;0.37;;;16.40;99.90;;;;;;5114740;28;20529;-82
2023/08/26 20:11:57;;;;;;;0.30;0.30;;;16.40;99.90;;;;;;5116452;28;20028;-81
2023/08/26 20:14:22;;;;;;;0.30;0.30;;;16.30;99.90;;;;;;5097139;28;20051;-80
2023/08/26 20:16:48;;;;;;;0.30;0.30;;;16.30;99.90;;;;;;5114937;28;20393;-80
2023/08/26 20:19:13;;;;;;;0.23;0.23;;;16.20;99.90;;;;;;5114229;28;20081;-82
2023/08/26 20:21:39;;;;;;;0.30;0.30;;;16.30;99.90;;;;;;5115459;27;20126;-82
2023/08/26 20:24:05;;;;;;;0.30;0.30;;;16.30;99.90;;;;;;5114738;28;20509;-81
2023/08/26 20:26:31;;;;;;;0.30;0.30;;;16.20;99.90;;;;;;5112367;28;20035;-80
2023/08/26 20:28:57;;;;;;;0.43;0.43;;;16.20;99.90;;;;;;5099504;28;20036;-74
2023/08/26 20:31:23;;;;;;;0.38;0.38;;;16.20;99.90;;;;;;5115183;28;20043;-74
2023/08/26 20:33:49;;;;;;;0.40;0.40;;;16.20;99.90;;;;;;5112760;28;20040;-76
2023/08/26 20:36:15;;;;;;;0.30;0.30;;;16.20;99.90;;;;;;5112427;28;20042;-75
2023/08/26 20:38:41;;;;;;;0.30;0.30;;;16.20;99.90;;;;;;5115234;27;20414;-76
2023/08/26 20:41:07;;;;;;;0.30;0.30;;;16.20;99.90;;;;;;5114261;28;20042;-75
2023/08/26 20:43:33;;;;;;;;;;;16.30;99.90;;;;;;5114637;28;20055;-76
2023/08/26 20:45:59;;;;;;;0.60;0.60;;;16.20;99.90;;;;;;5114332;28;20311;-76
2023/08/26 20:48:26;;;;;;;0.30;0.30;;;16.20;99.90;;;;;;5114382;28;20028;-80
2023/08/26 20:50:52;;;;;;;;;;;16.20;99.90;;;;;;5114532;28;20043;-80
2023/08/26 20:53:19;;;;;;;0.95;0.70;;;16.20;99.90;;;;;;5113447;28;19915;-81
2023/08/26 20:55:44;;;;;;;0.30;0.30;;;16.20;99.90;;;;;;5114787;28;20043;-82
2023/08/26 20:58:11;;;;;;;0.30;0.30;;;16.20;99.90;;;;;;5114523;28;20039;-78
2023/08/26 21:00:38;;;;;;;0.30;0.30;;;16.10;99.90;;;;;;5114289;28;20534;-75
2023/08/26 21:03:04;;;;;;;0.55;0.55;;;16.00;99.90;;;;;;5114128;28;20046;-73
2023/08/26 21:05:32;;;;;;;0.40;0.40;;;16.10;99.90;;;;;;5114099;28;20044;-83
2023/08/26 21:07:58;;;;;;;0.30;0.30;;;16.10;99.90;;;;;;5114032;28;20047;-79
2023/08/26 21:10:24;;;;;;;0.30;0.30;;;16.10;99.90;;;;;;5112859;28;20122;-80
2023/08/26 21:12:50;;;;;;;0.40;0.40;;;16.10;99.90;;;;;;5114655;28;20096;-79
2023/08/26 21:15:17;;;;;;;0.80;0.52;;;16.10;99.90;;;;;;5114549;28;20032;-79
2023/08/26 21:17:43;;;;;;;0.47;0.47;;;16.00;99.90;;;;;;5114066;28;20036;-81
2023/08/26 21:20:10;;;;;;;0.40;0.30;;;16.00;99.90;;;;;;5113821;28;20049;-82
2023/08/26 21:22:38;;;;;;;0.30;0.30;;;16.00;99.90;;;;;;5114204;28;20278;-80
2023/08/26 21:25:04;;;;;;;0.30;0.30;;;15.90;99.90;;;;;;5113578;28;20065;-81
2023/08/26 21:27:36;;;;;;;0.30;0.30;;;15.90;99.90;;;;;;5112652;28;20039;-82
2023/08/26 21:30:06;;;;;;;0.38;0.38;;;15.80;99.90;;;;;;5116086;28;20040;-86
2023/08/26 21:32:43;;;;;;;0.43;0.43;;;15.80;99.90;;;;;;5112843;28;20044;-80
2023/08/26 21:35:28;;;;;;;0.30;0.30;;;15.80;99.90;;;;;;5114440;28;20082;-84
2023/08/26 21:37:54;;;;;;;0.50;0.50;;;15.80;99.90;;;;;;5113220;28;20082;-74
2023/08/26 21:40:19;;;;;;;0.30;0.30;;;15.80;99.90;;;;;;5114800;28;20063;-82
2023/08/26 21:42:45;;;;;;;0.30;0.30;;;15.70;99.90;;;;;;5113911;28;20463;-80
2023/08/26 21:45:11;;;;;;;0.40;0.40;;;15.60;99.90;;;;;;5114084;28;20035;-80
2023/08/26 21:47:36;;;;;;;0.30;0.30;;;15.80;99.90;;;;;;5113249;28;20417;-81
2023/08/26 21:50:02;;;;;;;0.40;0.40;;;15.50;99.90;;;;;;5114070;28;20414;-80
2023/08/26 21:52:28;;;;;;;0.30;0.30;;;15.50;99.90;;;;;;5114145;28;20086;-80
2023/08/26 21:54:54;;;;;;;0.77;0.63;;;15.40;99.90;;;;;;5113043;28;20078;-81